Time;durP1;ratioP1;P1;durP2;ratioP2;P2;SDS_P1;SDS_P2;PMS_P1;PMS_P2;Temp;Humidity;BMP_temperature;BMP_pressure;BME280_temperature;BME280_humidity;BME280_pressure;Samples;Min_cycle;Max_cycle;Signal;HPM_P1;HPM_P2
2022/06/18 00:02:20;;;;;;;;;;;;;;;13.92;100.00;99553.95;1785199;80;20116;-69
2022/06/18 00:04:48;;;;;;;;;;;;;;;13.91;100.00;99549.58;1784911;80;20132;-69
2022/06/18 00:07:19;;;;;;;;;;;;;;;13.91;100.00;99548.77;1784784;80;21234;-69
2022/06/18 00:09:53;;;;;;;;;;;;;;;13.87;100.00;99548.06;1784956;80;20080;-69
2022/06/18 00:15:13;;;;;;;;;;;;;;;13.85;100.00;99539.34;1784933;80;20154;-69
2022/06/18 00:17:41;;;;;;;;;;;;;;;13.87;100.00;99545.88;1784978;80;20108;-69
2022/06/18 00:20:08;;;;;;;;;;;;;;;13.87;100.00;99539.79;1785277;80;21046;-69
2022/06/18 00:22:35;;;;;;;;;;;;;;;13.89;100.00;99543.59;1784802;80;20081;-69
2022/06/18 00:25:01;;;;;;;;;;;;;;;13.89;100.00;99543.02;1784936;80;20120;-69
2022/06/18 00:27:27;;;;;;;;;;;;;;;13.91;100.00;99544.63;1784850;80;20128;-69
2022/06/18 00:29:55;;;;;;;;;;;;;;;13.89;100.00;99538.88;1784857;80;20116;-70
2022/06/18 00:32:21;;;;;;;;;;;;;;;13.88;100.00;99543.36;1784860;80;21758;-70
2022/06/18 00:34:49;;;;;;;;;;;;;;;13.85;100.00;99548.20;1784833;80;20096;-69
2022/06/18 00:37:16;;;;;;;;;;;;;;;13.83;100.00;99545.77;1785000;80;20080;-69
2022/06/18 00:39:44;;;;;;;;;;;;;;;13.79;100.00;99536.56;1786431;80;20100;-69
2022/06/18 00:42:23;;;;;;;;;;;;;;;13.80;100.00;99532.66;1785182;80;20092;-69
2022/06/18 00:44:54;;;;;;;;;;;;;;;13.82;100.00;99535.88;1784077;80;21817;-69
2022/06/18 00:47:43;;;;;;;;;;;;;;;13.83;100.00;99535.31;1771207;81;20132;-69
2022/06/18 00:50:29;;;;;;;;;;;;;;;13.80;100.00;99531.84;1784960;80;20092;-69
2022/06/18 00:52:59;;;;;;;;;;;;;;;13.78;100.00;99530.80;1785173;80;20492;-69
2022/06/18 00:55:35;;;;;;;;;;;;;;;13.76;100.00;99526.20;1785016;80;20144;-70
2022/06/18 00:58:05;;;;;;;;;;;;;;;13.75;100.00;99531.48;1785177;80;21838;-69
2022/06/18 01:00:44;;;;;;;;;;;;;;;13.73;100.00;99527.44;1784591;80;20454;-69
2022/06/18 01:03:29;;;;;;;;;;;;;;;13.74;100.00;99522.16;1784826;80;20096;-69
2022/06/18 01:05:57;;;;;;;;;;;;;;;13.73;100.00;99521.92;1784917;80;20536;-69
2022/06/18 01:08:26;;;;;;;;;;;;;;;13.72;100.00;99514.22;1785175;80;20429;-69
2022/06/18 01:10:56;;;;;;;;;;;;;;;13.73;100.00;99511.70;1784916;80;21067;-69
2022/06/18 01:13:26;;;;;;;;;;;;;;;13.74;100.00;99511.93;1784942;80;20112;-69
2022/06/18 01:15:53;;;;;;;;;;;;;;;13.76;100.00;99504.70;1784571;80;20165;-69
2022/06/18 01:18:21;;;;;;;;;;;;;;;13.77;100.00;99501.60;1784629;80;20112;-69
2022/06/18 01:20:54;;;;;;;;;;;;;;;13.77;100.00;99507.69;1784650;80;20132;-69
2022/06/18 01:23:41;;;;;;;;;;;;;;;13.77;100.00;99508.50;1757667;80;40185;-69
2022/06/18 01:26:09;;;;;;;;;;;;;;;13.74;100.00;99505.61;1784375;80;20124;-69
2022/06/18 01:28:36;;;;;;;;;;;;;;;13.72;100.00;99505.14;1784624;80;20116;-69
2022/06/18 01:31:04;;;;;;;;;;;;;;;13.69;100.00;99501.09;1753595;80;20117;-69
2022/06/18 01:33:31;;;;;;;;;;;;;;;13.69;100.00;99505.81;1784414;80;20096;-69
2022/06/18 01:35:57;;;;;;;;;;;;;;;13.69;100.00;99501.67;1784576;80;21101;-69
2022/06/18 01:38:26;;;;;;;;;;;;;;;13.68;100.00;99496.73;1784454;80;20104;-69
2022/06/18 01:41:49;;;;;;;;;;;;;;;13.69;100.00;99500.30;1784462;80;20092;-70
2022/06/18 01:43:31;;;;;;;;;;;;;;;13.68;100.00;99494.54;1762446;80;20096;-69
2022/06/18 01:45:59;;;;;;;;;;;;;;;13.66;100.00;99500.39;1784567;80;20518;-69
2022/06/18 01:48:30;;;;;;;;;;;;;;;13.64;100.00;99509.58;1784490;80;21144;-69
2022/06/18 01:51:02;;;;;;;;;;;;;;;13.62;100.00;99509.11;1784503;80;20116;-69
2022/06/18 01:53:33;;;;;;;;;;;;;;;13.59;100.00;99512.54;1784718;80;20147;-69
2022/06/18 01:56:03;;;;;;;;;;;;;;;13.57;100.00;99507.13;1784423;80;20076;-69
2022/06/18 01:58:40;;;;;;;;;;;;;;;13.57;100.00;99505.74;1784720;80;20432;-69
2022/06/18 02:01:12;;;;;;;;;;;;;;;13.58;100.00;99500.46;1783895;80;21115;-69
2022/06/18 02:03:39;;;;;;;;;;;;;;;13.59;100.00;99506.22;1784633;80;20448;-69
2022/06/18 02:06:07;;;;;;;;;;;;;;;13.60;100.00;99505.87;1784409;80;20104;-69
2022/06/18 02:08:33;;;;;;;;;;;;;;;13.59;100.00;99497.94;1784621;80;20153;-69
2022/06/18 02:11:03;;;;;;;;;;;;;;;13.58;100.00;99491.62;1752980;80;20085;-69
2022/06/18 02:13:33;;;;;;;;;;;;;;;13.56;100.00;99496.66;1784507;80;21120;-69
2022/06/18 02:15:59;;;;;;;;;;;;;;;13.57;100.00;99495.52;1784346;80;20085;-69
2022/06/18 02:18:25;;;;;;;;;;;;;;;13.59;100.00;99500.13;1784514;80;20116;-70
2022/06/18 02:20:54;;;;;;;;;;;;;;;13.61;100.00;99497.03;1784083;80;20080;-69
2022/06/18 02:23:21;;;;;;;;;;;;;;;13.64;100.00;99506.02;1784602;80;20084;-69
2022/06/18 02:25:47;;;;;;;;;;;;;;;13.68;100.00;99503.63;1784895;80;21479;-69
2022/06/18 02:28:29;;;;;;;;;;;;;;;13.69;100.00;99502.48;1784404;80;20133;-69
2022/06/18 02:30:57;;;;;;;;;;;;;;;13.70;100.00;99506.05;1784520;80;20467;-69
2022/06/18 02:33:48;;;;;;;;;;;;;;;13.68;100.00;99500.86;1784835;80;20451;-69
2022/06/18 02:36:18;;;;;;;;;;;;;;;13.68;100.00;99509.14;1783592;80;20092;-69
2022/06/18 02:38:46;;;;;;;;;;;;;;;13.71;100.00;99513.98;1784428;80;21142;-69
2022/06/18 02:41:14;;;;;;;;;;;;;;;13.73;100.00;99508.13;1752971;80;20448;-69
2022/06/18 02:43:42;;;;;;;;;;;;;;;13.75;100.00;99506.65;1784474;80;20096;-69
2022/06/18 02:46:08;;;;;;;;;;;;;;;13.77;100.00;99504.93;1784744;80;20115;-69
2022/06/18 02:48:35;;;;;;;;;;;;;;;13.79;100.00;99502.07;1784551;80;20096;-69
2022/06/18 02:51:03;;;;;;;;;;;;;;;13.79;100.00;99511.73;1784548;80;21605;-69
2022/06/18 02:53:30;;;;;;;;;;;;;;;13.81;100.00;99516.91;1784468;80;20092;-69
2022/06/18 02:56:02;;;;;;;;;;;;;;;13.84;100.00;99530.84;1784497;80;20116;-69
2022/06/18 02:58:37;;;;;;;;;;;;;;;13.83;100.00;99527.84;1784783;80;20404;-69
2022/06/18 03:01:06;;;;;;;;;;;;;;;13.85;100.00;99526.13;1784558;80;20097;-69
2022/06/18 03:03:38;;;;;;;;;;;;;;;13.84;100.00;99533.59;1784529;80;21157;-69
2022/06/18 03:06:05;;;;;;;;;;;;;;;13.85;100.00;99531.64;1784472;80;20080;-69
2022/06/18 03:08:32;;;;;;;;;;;;;;;13.85;100.00;99536.59;1784382;80;20120;-69
2022/06/18 03:13:46;;;;;;;;;;;;;;;13.86;100.00;99542.91;1784418;80;20447;-69
2022/06/18 03:16:15;;;;;;;;;;;;;;;13.80;100.00;99538.17;1784617;80;21947;-69
2022/06/18 03:18:42;;;;;;;;;;;;;;;13.77;100.00;99542.98;1784584;80;20136;-70
2022/06/18 03:21:18;;;;;;;;;;;;;;;13.79;100.00;99544.84;1784577;80;20163;-71
2022/06/18 03:23:45;;;;;;;;;;;;;;;13.79;100.00;99547.59;1784659;80;20192;-70
2022/06/18 03:26:11;;;;;;;;;;;;;;;13.78;100.00;99547.93;1784828;80;20432;-69
2022/06/18 03:28:40;;;;;;;;;;;;;;;13.77;100.00;99548.50;1784868;80;21825;-70
2022/06/18 03:31:08;;;;;;;;;;;;;;;13.75;100.00;99548.03;1784679;80;20152;-70
2022/06/18 03:33:36;;;;;;;;;;;;;;;13.75;100.00;99547.22;1784836;80;20092;-70
2022/06/18 03:36:03;;;;;;;;;;;;;;;13.73;100.00;99546.18;1784766;80;20435;-71
2022/06/18 03:38:30;;;;;;;;;;;;;;;13.71;100.00;99542.14;1785156;80;20096;-69
2022/06/18 03:40:57;;;;;;;;;;;;;;;13.70;100.00;99542.72;1784922;80;21791;-69
2022/06/18 03:43:24;;;;;;;;;;;;;;;13.73;100.00;99542.05;1784850;80;20108;-70
2022/06/18 03:45:59;;;;;;;;;;;;;;;13.73;100.00;99546.18;1784923;80;20077;-70
2022/06/18 03:48:32;;;;;;;;;;;;;;;13.72;100.00;99544.56;1784904;80;20420;-69
2022/06/18 03:50:59;;;;;;;;;;;;;;;13.76;100.00;99543.32;1785015;80;20097;-69
2022/06/18 03:53:25;;;;;;;;;;;;;;;13.83;100.00;99548.53;1784954;80;21488;-69
2022/06/18 03:55:52;;;;;;;;;;;;;;;13.87;100.00;99546.69;1785136;80;20092;-69
2022/06/18 03:58:18;;;;;;;;;;;;;;;13.91;100.00;99544.06;1770909;81;20181;-70
2022/06/18 04:00:45;;;;;;;;;;;;;;;13.98;100.00;99547.08;1784744;80;20072;-70
2022/06/18 04:03:14;;;;;;;;;;;;;;;14.03;100.00;99548.83;1785012;80;20148;-70
2022/06/18 04:05:41;;;;;;;;;;;;;;;14.07;100.00;99542.87;1784952;80;21176;-71
2022/06/18 04:08:11;;;;;;;;;;;;;;;14.15;100.00;99541.98;1784718;80;20131;-68
2022/06/18 04:10:40;;;;;;;;;;;;;;;14.24;100.00;99539.14;1784115;80;20111;-70
2022/06/18 04:13:08;;;;;;;;;;;;;;;14.32;100.00;99541.01;1784836;80;20262;-70
2022/06/18 04:15:43;;;;;;;;;;;;;;;14.35;100.00;99545.84;1770202;81;20078;-70
2022/06/18 04:18:15;;;;;;;;;;;;;;;14.39;100.00;99542.64;1783679;80;21150;-70
2022/06/18 04:20:42;;;;;;;;;;;;;;;14.51;100.00;99545.44;1784472;80;20116;-70
2022/06/18 04:23:11;;;;;;;;;;;;;;;14.61;100.00;99549.14;1784523;80;20455;-70
2022/06/18 04:25:42;;;;;;;;;;;;;;;14.69;100.00;99551.58;1784575;80;20108;-70
2022/06/18 04:28:10;;;;;;;;;;;;;;;14.74;100.00;99555.50;1784849;80;20104;-70
2022/06/18 04:30:37;;;;;;;;;;;;;;;14.82;100.00;99557.36;1784556;80;21133;-70
2022/06/18 04:33:08;;;;;;;;;;;;;;;14.93;100.00;99555.76;1784581;80;20455;-70
2022/06/18 04:35:36;;;;;;;;;;;;;;;15.04;100.00;99550.55;1784060;80;20116;-69
2022/06/18 04:38:10;;;;;;;;;;;;;;;15.14;100.00;99558.39;1784596;80;20153;-69
2022/06/18 04:40:56;;;;;;;;;;;;;;;15.22;100.00;99560.81;1751534;82;20118;-69
2022/06/18 04:43:24;;;;;;;;;;;;;;;15.35;100.00;99559.08;1751252;82;21125;-69
2022/06/18 04:45:55;;;;;;;;;;;;;;;15.49;100.00;99565.06;1763624;80;20104;-69
2022/06/18 04:48:23;;;;;;;;;;;;;;;15.60;100.00;99568.16;1784583;80;20084;-69
2022/06/18 04:50:51;;;;;;;;;;;;;;;15.57;100.00;99560.58;1784814;80;20127;-69
2022/06/18 04:53:20;;;;;;;;;;;;;;;15.45;100.00;99564.72;1784612;80;20096;-69
2022/06/18 04:55:48;;;;;;;;;;;;;;;15.35;100.00;99574.86;1784148;80;21160;-70
2022/06/18 04:58:15;;;;;;;;;;;;;;;15.21;100.00;99579.36;1784415;79;20072;-69
2022/06/18 05:00:44;;;;;;;;;;;;;;;15.13;100.00;99588.57;1784468;79;20140;-71
2022/06/18 05:03:21;;;;;;;;;;;;;;;15.09;100.00;99580.16;1776043;80;20152;-70
2022/06/18 05:05:56;;;;;;;;;;;;;;;15.17;100.00;99583.39;1760591;80;20089;-71
2022/06/18 05:08:41;;;;;;;;;;;;;;;15.31;100.00;99589.96;1778093;80;21151;-68
2022/06/18 05:11:27;;;;;;;;;;;;;;;15.43;100.00;99599.64;1777214;80;20157;-69
2022/06/18 05:13:56;;;;;;;;;;;;;;;15.54;100.00;99588.91;1777378;80;20113;-71
2022/06/18 05:16:24;;;;;;;;;;;;;;;15.64;100.00;99591.79;1778093;80;20089;-71
2022/06/18 05:18:51;;;;;;;;;;;;;;;15.78;100.00;99595.80;1778564;80;20125;-70
2022/06/18 05:21:17;;;;;;;;;;;;;;;15.84;100.00;99593.02;1778561;80;21773;-69
2022/06/18 05:23:44;;;;;;;;;;;;;;;15.87;100.00;99595.66;1778710;80;20097;-70
2022/06/18 05:26:13;;;;;;;;;;;;;;;15.87;100.00;99594.86;1778520;80;20488;-70
2022/06/18 05:28:39;;;;;;;;;;;;;;;15.94;100.00;99593.69;1770605;80;20232;-70
2022/06/18 05:31:07;;;;;;;;;;;;;;;16.08;100.00;99598.27;1780926;80;20112;-70
2022/06/18 05:33:34;;;;;;;;;;;;;;;16.30;100.00;99592.16;1791289;80;21095;-70
2022/06/18 05:36:01;;;;;;;;;;;;;;;16.57;100.00;99598.05;1785882;79;20121;-70
2022/06/18 05:38:29;;;;;;;;;;;;;;;16.73;100.00;99596.14;1790384;80;20139;-72
2022/06/18 05:40:55;;;;;;;;;;;;;;;16.89;100.00;99594.75;1781006;80;20278;-72
2022/06/18 05:43:23;;;;;;;;;;;;;;;16.97;100.00;99600.70;1764750;80;20093;-73
2022/06/18 05:45:53;;;;;;;;;;;;;;;17.10;100.00;99604.42;1746985;82;21099;-72
2022/06/18 05:48:17;;;;;;;;;;;;;;;17.24;100.00;99605.36;1746335;80;20414;-72
2022/06/18 05:50:45;;;;;;;;;;;;;;;17.38;100.00;99606.27;1747087;82;20194;-73
2022/06/18 05:53:11;;;;;;;;;;;;;;;17.51;100.00;99611.94;1747884;82;20111;-73
2022/06/18 05:55:48;;;;;;;;;;;;;;;17.59;100.00;99610.94;1774192;80;20165;-72
2022/06/18 05:58:22;;;;;;;;;;;;;;;17.62;99.34;99611.61;1773667;81;21768;-72
2022/06/18 06:00:52;;;;;;;;;;;;;;;17.62;97.58;99615.77;1772743;80;20105;-72
2022/06/18 06:03:18;;;;;;;;;;;;;;;17.63;96.49;99614.61;1747211;82;20107;-73
2022/06/18 06:05:45;;;;;;;;;;;;;;;17.64;95.91;99618.19;1745766;82;20782;-72
2022/06/18 06:08:12;;;;;;;;;;;;;;;17.64;94.82;99613.44;1746844;82;20176;-72
2022/06/18 06:13:25;;;;;;;;;;;;;;;17.57;94.76;99612.47;1759760;80;20425;-71
2022/06/18 06:15:54;;;;;;;;;;;;;;;17.55;93.31;99615.60;1751148;80;20447;-71
2022/06/18 06:18:22;;;;;;;;;;;;;;;17.54;94.80;99609.83;1796873;80;20459;-71
2022/06/18 06:20:51;;;;;;;;;;;;;;;17.66;92.81;99611.14;1796834;80;20459;-73
2022/06/18 06:23:17;;;;;;;;;;;;;;;17.79;93.42;99605.69;1794315;79;21817;-72
2022/06/18 06:25:45;;;;;;;;;;;;;;;17.97;92.86;99614.97;1797036;80;20091;-72
2022/06/18 06:28:22;;;;;;;;;;;;;;;18.11;92.38;99608.34;1796992;79;20114;-73
2022/06/18 06:30:49;;;;;;;;;;;;;;;18.21;88.91;99616.09;1795281;79;20139;-72
2022/06/18 06:33:18;;;;;;;;;;;;;;;18.24;88.62;99620.13;1772505;80;20166;-73
2022/06/18 06:35:45;;;;;;;;;;;;;;;18.23;87.35;99627.66;1797195;79;21116;-72
2022/06/18 06:38:12;;;;;;;;;;;;;;;18.24;88.25;99620.92;1796860;80;20071;-72
2022/06/18 06:40:39;;;;;;;;;;;;;;;18.33;87.38;99621.52;1796993;79;20474;-73
2022/06/18 06:43:07;;;;;;;;;;;;;;;18.37;87.18;99625.76;1797137;80;20239;-73
2022/06/18 06:45:34;;;;;;;;;;;;;;;18.38;86.41;99624.00;1797017;79;20140;-73
2022/06/18 06:48:00;;;;;;;;;;;;;;;18.41;86.27;99631.61;1797066;80;21128;-72
2022/06/18 06:50:28;;;;;;;;;;;;;;;18.38;84.77;99623.20;1796973;79;20501;-73
2022/06/18 06:52:54;;;;;;;;;;;;;;;18.34;84.46;99625.10;1797073;80;20438;-72
2022/06/18 06:58:11;;;;;;;;;;;;;;;18.66;84.67;99617.41;1796736;80;20122;-72
2022/06/18 07:00:40;;;;;;;;;;;;;;;18.77;85.33;99615.63;1797054;80;21087;-73
2022/06/18 07:03:07;;;;;;;;;;;;;;;18.80;82.47;99610.14;1797177;79;20162;-73
2022/06/18 07:05:33;;;;;;;;;;;;;;;18.87;81.09;99615.61;1797093;80;20501;-73
2022/06/18 07:07:59;;;;;;;;;;;;;;;18.95;84.23;99616.77;1797255;80;20202;-72
2022/06/18 07:10:26;;;;;;;;;;;;;;;19.21;83.33;99611.03;1796975;80;20179;-77
2022/06/18 07:12:52;;;;;;;;;;;;;;;19.42;79.36;99618.34;1791078;79;20519;-73
2022/06/18 07:15:18;;;;;;;;;;;;;;;19.48;79.51;99621.02;1791104;80;20120;-76
2022/06/18 07:17:45;;;;;;;;;;;;;;;19.48;76.65;99620.22;1790059;79;20466;-75
2022/06/18 07:20:14;;;;;;;;;;;;;;;19.46;78.10;99637.30;1792633;79;20131;-73
2022/06/18 07:22:40;;;;;;;;;;;;;;;19.58;80.50;99625.99;1793821;80;20171;-73
2022/06/18 07:25:08;;;;;;;;;;;;;;;19.83;80.23;99630.52;1793814;80;21119;-73
2022/06/18 07:27:35;;;;;;;;;;;;;;;19.89;77.72;99633.78;1793992;80;20366;-75
2022/06/18 07:30:05;;;;;;;;;;;;;;;19.78;76.92;99639.20;1794012;80;20144;-74
2022/06/18 07:32:31;;;;;;;;;;;;;;;19.69;76.65;99632.50;1793982;80;20164;-72
2022/06/18 07:34:58;;;;;;;;;;;;;;;19.74;78.55;99627.20;1793952;80;20144;-75
2022/06/18 07:37:25;;;;;;;;;;;;;;;19.82;76.27;99626.13;1793973;80;21256;-73
2022/06/18 07:39:51;;;;;;;;;;;;;;;19.76;73.73;99632.61;1793956;80;20131;-77
2022/06/18 07:42:19;;;;;;;;;;;;;;;19.79;75.95;99629.66;1793862;78;20135;-77
2022/06/18 07:44:45;;;;;;;;;;;;;;;19.90;74.75;99625.64;1773781;79;20153;-76
2022/06/18 07:47:13;;;;;;;;;;;;;;;20.02;74.93;99623.44;1785290;79;20464;-75
2022/06/18 07:49:41;;;;;;;;;;;;;;;20.15;73.47;99624.59;1758847;80;21804;-75
2022/06/18 07:52:08;;;;;;;;;;;;;;;20.16;74.36;99633.97;1758631;81;20126;-78
2022/06/18 07:54:35;;;;;;;;;;;;;;;20.29;75.03;99627.55;1784793;78;20959;-75
2022/06/18 07:57:02;;;;;;;;;;;;;;;20.54;74.01;99632.06;1798921;79;20550;-75
2022/06/18 07:59:29;;;;;;;;;;;;;;;20.71;75.00;99631.47;1797952;79;20169;-75
2022/06/18 08:01:56;;;;;;;;;;;;;;;20.76;72.08;99634.72;1795465;79;21512;-74
2022/06/18 08:04:24;;;;;;;;;;;;;;;20.73;69.99;99637.47;1765439;81;20117;-76
2022/06/18 08:06:50;;;;;;;;;;;;;;;20.63;71.33;99636.17;1799145;78;20161;-79
2022/06/18 08:09:18;;;;;;;;;;;;;;;20.71;72.96;99641.23;1765660;81;20133;-77
2022/06/18 08:11:45;;;;;;;;;;;;;;;20.99;72.68;99632.34;1798935;79;20126;-73
2022/06/18 08:14:12;;;;;;;;;;;;;;;21.34;72.13;99636.09;1765940;81;21110;-77
2022/06/18 08:16:40;;;;;;;;;;;;;;;21.57;68.89;99631.08;1799599;79;20117;-76
2022/06/18 08:19:06;;;;;;;;;;;;;;;21.67;69.02;99638.73;1768497;81;20147;-74
2022/06/18 08:21:38;;;;;;;;;;;;;;;21.71;68.37;99640.16;1801668;79;20142;-73
2022/06/18 08:24:14;;;;;;;;;;;;;;;21.54;67.68;99637.44;1757599;81;20173;-75
2022/06/18 08:26:41;;;;;;;;;;;;;;;21.22;65.97;99641.38;1796218;79;21158;-75
2022/06/18 08:29:10;;;;;;;;;;;;;;;20.92;68.42;99647.02;1801056;78;20143;-75
2022/06/18 08:31:36;;;;;;;;;;;;;;;20.89;69.20;99642.20;1771586;79;20226;-77
2022/06/18 08:34:02;;;;;;;;;;;;;;;21.16;71.04;99636.49;1775213;79;20167;-76
2022/06/18 08:36:29;;;;;;;;;;;;;;;21.51;67.67;99640.20;1801610;79;20173;-75
2022/06/18 08:38:57;;;;;;;;;;;;;;;21.85;67.61;99639.45;1801842;79;20950;-74
2022/06/18 08:41:49;;;;;;;;;;;;;;;22.23;66.37;99638.89;1801651;79;20172;-79
2022/06/18 08:44:48;;;;;;;;;;;;;;;22.64;61.77;99633.84;1787474;78;20494;-78
2022/06/18 08:47:27;;;;;;;;;;;;;;;22.57;61.85;99622.63;1798957;78;20439;-80
2022/06/18 08:50:07;;;;;;;;;;;;;;;22.31;61.36;99627.95;1799292;79;20462;-75
2022/06/18 08:52:55;;;;;;;;;;;;;;;22.19;63.53;99647.86;1774417;79;21295;-75
2022/06/18 08:55:58;;;;;;;;;;;;;;;22.46;63.51;99640.59;1785366;79;20167;-75
2022/06/18 08:58:47;;;;;;;;;;;;;;;22.67;58.79;99638.66;1797515;79;20097;-73
2022/06/18 09:01:32;;;;;;;;;;;;;;;22.43;58.46;99631.59;1768310;80;20133;-71
2022/06/18 09:04:14;;;;;;;;;;;;;;;22.32;61.41;99636.54;1783492;80;20132;-69
2022/06/18 09:07:06;;;;;;;;;;;;;;;22.69;62.94;99629.86;1783855;80;21090;-71
2022/06/18 09:10:00;;;;;;;;;;;;;;;23.25;60.85;99626.98;1783314;80;20133;-73
2022/06/18 09:12:40;;;;;;;;;;;;;;;23.76;58.61;99628.58;1792143;79;20194;-74
2022/06/18 09:15:21;;;;;;;;;;;;;;;24.01;55.90;99630.13;1777084;79;20175;-74
2022/06/18 09:18:02;;;;;;;;;;;;;;;24.33;54.87;99620.83;1789187;79;20115;-73
2022/06/18 09:20:37;;;;;;;;;;;;;;;24.76;54.07;99613.02;1782378;80;21145;-73
2022/06/18 09:23:28;;;;;;;;;;;;;;;25.09;53.17;99604.58;1780993;80;20133;-70
2022/06/18 09:25:58;;;;;;;;;;;;;;;25.25;50.51;99611.09;1781133;80;20160;-71
2022/06/18 09:28:27;;;;;;;;;;;;;;;25.51;51.45;99610.44;1752068;80;20179;-71
2022/06/18 09:31:23;;;;;;;;;;;;;;;25.81;50.51;99614.01;1781182;80;20439;-71
2022/06/18 09:33:53;;;;;;;;;;;;;;;26.08;46.98;99611.90;1778388;80;21363;-71
2022/06/18 09:36:22;;;;;;;;;;;;;;;26.02;48.26;99615.77;1781109;80;20202;-71
2022/06/18 09:38:52;;;;;;;;;;;;;;;25.90;46.74;99619.95;1775151;81;20209;-70
2022/06/18 09:41:24;;;;;;;;;;;;;;;25.67;46.93;99614.15;1775080;81;20539;-70
2022/06/18 09:44:07;;;;;;;;;;;;;;;25.15;48.33;99614.78;1774748;81;20487;-72
2022/06/18 09:46:37;;;;;;;;;;;;;;;24.68;50.54;99615.06;1774754;81;21109;-70
2022/06/18 09:49:07;;;;;;;;;;;;;;;24.29;51.33;99615.23;1775536;80;20124;-68
2022/06/18 09:51:42;;;;;;;;;;;;;;;23.99;51.05;99612.11;1775046;80;20141;-73
2022/06/18 09:54:08;;;;;;;;;;;;;;;23.63;52.07;99611.41;1774644;81;20162;-72
2022/06/18 09:56:38;;;;;;;;;;;;;;;23.33;52.92;99615.98;1774633;81;20174;-71
2022/06/18 09:59:14;;;;;;;;;;;;;;;23.21;55.10;99609.38;1774362;80;21800;-72
2022/06/18 10:01:49;;;;;;;;;;;;;;;23.26;56.31;99610.38;1774610;81;21380;-72
2022/06/18 10:07:05;;;;;;;;;;;;;;;24.21;54.25;99595.42;1774626;81;20129;-71
2022/06/18 10:09:45;;;;;;;;;;;;;;;24.86;53.11;99586.85;1774561;81;20173;-71
2022/06/18 10:12:26;;;;;;;;;;;;;;;25.14;50.94;99591.50;1774218;81;21181;-71
2022/06/18 10:14:55;;;;;;;;;;;;;;;25.19;49.21;99597.29;1774959;81;20092;-72
2022/06/18 10:17:30;;;;;;;;;;;;;;;24.98;48.07;99603.25;1774523;80;20130;-69
2022/06/18 10:20:21;;;;;;;;;;;;;;;24.76;48.85;99596.17;1773148;81;20138;-72
2022/06/18 10:23:16;;;;;;;;;;;;;;;24.50;50.20;99591.89;1740060;82;20196;-74
2022/06/18 10:26:00;;;;;;;;;;;;;;;23.99;48.44;99601.70;1769837;81;21125;-74
2022/06/18 10:28:36;;;;;;;;;;;;;;;23.54;48.26;99604.80;1713861;82;20140;-71
2022/06/18 10:31:21;;;;;;;;;;;;;;;23.19;50.66;99606.17;1743553;82;20120;-70
2022/06/18 10:34:28;;;;;;;;;;;;;;;23.11;52.80;99601.16;1743471;82;20141;-70
2022/06/18 10:37:21;;;;;;;;;;;;;;;23.40;51.62;99599.17;1743284;82;20104;-71
2022/06/18 10:39:54;;;;;;;;;;;;;;;23.82;49.84;99594.73;1743234;82;21159;-76
2022/06/18 10:42:28;;;;;;;;;;;;;;;24.10;49.85;99591.86;1749655;81;20170;-78
2022/06/18 10:45:26;;;;;;;;;;;;;;;24.14;47.23;99594.64;1760375;81;20258;-73
2022/06/18 10:47:52;;;;;;;;;;;;;;;23.96;48.32;99593.30;1769490;81;20175;-72
2022/06/18 10:50:20;;;;;;;;;;;;;;;23.71;49.42;99598.35;1774289;81;20468;-70
2022/06/18 10:53:04;;;;;;;;;;;;;;;23.44;49.69;99601.38;1774279;81;21113;-69
2022/06/18 10:55:31;;;;;;;;;;;;;;;23.15;51.63;99600.56;1773909;81;20164;-71
2022/06/18 10:58:06;;;;;;;;;;;;;;;22.92;52.30;99602.37;1774279;81;20197;-74
2022/06/18 11:00:33;;;;;;;;;;;;;;;22.79;53.42;99606.73;1772575;81;20189;-73
2022/06/18 11:03:00;;;;;;;;;;;;;;;22.73;53.08;99604.09;1771077;81;20169;-71
2022/06/18 11:05:33;;;;;;;;;;;;;;;23.04;54.15;99600.59;1771070;81;20870;-71
2022/06/18 11:08:02;;;;;;;;;;;;;;;23.67;51.87;99594.78;1771621;81;20094;-73
2022/06/18 11:10:38;;;;;;;;;;;;;;;24.39;50.14;99595.95;1774255;81;20154;-69
2022/06/18 11:13:08;;;;;;;;;;;;;;;24.96;47.44;99579.00;1774480;81;20453;-74
2022/06/18 11:15:38;;;;;;;;;;;;;;;25.53;47.18;99581.31;1745499;81;20169;-74
2022/06/18 11:18:17;;;;;;;;;;;;;;;26.01;45.64;99579.02;1774405;81;21223;-70
2022/06/18 11:21:00;;;;;;;;;;;;;;;26.38;44.03;99583.83;1772361;81;20102;-68
2022/06/18 11:23:27;;;;;;;;;;;;;;;26.41;42.75;99577.97;1768440;81;20438;-68
2022/06/18 11:25:58;;;;;;;;;;;;;;;26.17;44.55;99592.50;1774637;81;20070;-73
2022/06/18 11:28:39;;;;;;;;;;;;;;;25.92;44.59;99593.61;1774530;81;20097;-72
2022/06/18 11:31:05;;;;;;;;;;;;;;;25.59;44.27;99599.94;1761681;81;22943;-71
2022/06/18 11:33:37;;;;;;;;;;;;;;;25.26;44.46;99591.01;1796932;79;20147;-73
2022/06/18 11:36:11;;;;;;;;;;;;;;;24.98;44.46;99596.23;1767638;81;20139;-72
2022/06/18 11:38:38;;;;;;;;;;;;;;;24.90;44.84;99589.64;1799461;79;20173;-70
2022/06/18 11:41:14;;;;;;;;;;;;;;;25.05;46.96;99586.16;1799780;79;20543;-71
2022/06/18 11:43:47;;;;;;;;;;;;;;;25.60;44.45;99579.84;1799047;78;21882;-71
2022/06/18 11:46:20;;;;;;;;;;;;;;;26.11;40.19;99578.10;1793718;79;20163;-76
2022/06/18 11:48:56;;;;;;;;;;;;;;;26.36;42.69;99579.84;1793972;79;20167;-75
2022/06/18 11:51:35;;;;;;;;;;;;;;;26.56;40.72;99580.78;1794781;80;20091;-75
2022/06/18 11:54:27;;;;;;;;;;;;;;;26.47;41.62;99581.30;1794564;80;20163;-72
2022/06/18 11:57:07;;;;;;;;;;;;;;;26.04;39.84;99585.82;1794395;80;21161;-72
2022/06/18 11:59:42;;;;;;;;;;;;;;;25.56;40.19;99583.30;1793238;80;20099;-72
2022/06/18 12:02:15;;;;;;;;;;;;;;;25.45;40.31;99568.55;1794149;79;20144;-73
2022/06/18 12:04:45;;;;;;;;;;;;;;;25.67;40.38;99574.79;1794485;80;20116;-75
2022/06/18 12:07:18;;;;;;;;;;;;;;;26.18;41.25;99578.02;1786189;80;20168;-72
2022/06/18 12:09:45;;;;;;;;;;;;;;;26.52;39.45;99570.98;1791793;80;21159;-73
2022/06/18 12:12:36;;;;;;;;;;;;;;;26.60;38.42;99573.06;1794240;80;20507;-78
2022/06/18 12:15:17;;;;;;;;;;;;;;;26.44;37.39;99572.91;1794580;80;20083;-73
2022/06/18 12:17:46;;;;;;;;;;;;;;;26.37;39.03;99571.59;1793321;79;20451;-78
2022/06/18 12:20:40;;;;;;;;;;;;;;;26.31;35.99;99576.28;1792720;78;20202;-71
2022/06/18 12:23:28;;;;;;;;;;;;;;;26.41;37.53;99572.34;1786399;80;21571;-72
2022/06/18 12:26:10;;;;;;;;;;;;;;;26.41;36.52;99566.71;1784552;80;20199;-72
2022/06/18 12:28:44;;;;;;;;;;;;;;;26.25;38.01;99565.87;1782346;80;20451;-73
2022/06/18 12:31:17;;;;;;;;;;;;;;;26.10;37.35;99569.47;1785186;79;20196;-74
2022/06/18 12:34:00;;;;;;;;;;;;;;;26.10;38.88;99568.06;1784936;80;20144;-75
2022/06/18 12:36:31;;;;;;;;;;;;;;;26.28;37.38;99558.80;1787057;80;21165;-73
2022/06/18 12:39:28;;;;;;;;;;;;;;;26.44;35.91;99565.27;1787819;80;20084;-68
2022/06/18 12:42:13;;;;;;;;;;;;;;;26.22;37.73;99555.47;1787763;80;20436;-71
2022/06/18 12:44:44;;;;;;;;;;;;;;;26.31;36.69;99557.98;1787602;80;20115;-68
2022/06/18 12:47:41;;;;;;;;;;;;;;;26.70;38.37;99549.59;1787634;80;20119;-69
2022/06/18 12:50:26;;;;;;;;;;;;;;;27.36;37.24;99544.71;1786591;79;21101;-70
2022/06/18 12:53:07;;;;;;;;;;;;;;;27.56;36.12;99544.16;1786640;80;20455;-71
2022/06/18 12:55:47;;;;;;;;;;;;;;;27.42;36.18;99538.77;1787619;80;20404;-69
2022/06/18 12:58:25;;;;;;;;;;;;;;;27.15;35.70;99534.60;1787512;80;20068;-69
2022/06/18 13:01:02;;;;;;;;;;;;;;;27.01;35.93;99541.11;1787621;80;20432;-70
2022/06/18 13:03:47;;;;;;;;;;;;;;;26.77;34.67;99541.65;1787664;80;21963;-69
2022/06/18 13:06:21;;;;;;;;;;;;;;;26.38;35.37;99545.05;1768771;80;20480;-70
2022/06/18 13:09:09;;;;;;;;;;;;;;;26.12;35.33;99540.31;1755741;81;20106;-72
2022/06/18 13:11:51;;;;;;;;;;;;;;;26.38;37.38;99545.84;1768993;81;20158;-74
2022/06/18 13:14:41;;;;;;;;;;;;;;;26.95;35.71;99533.11;1769549;79;20133;-69
2022/06/18 13:17:18;;;;;;;;;;;;;;;27.15;34.89;99538.83;1775882;81;20136;-72
2022/06/18 13:19:50;;;;;;;;;;;;;;;26.96;34.91;99534.73;1750799;81;20090;-72
2022/06/18 13:22:17;;;;;;;;;;;;;;;26.63;34.40;99537.81;1746951;82;20082;-72
2022/06/18 13:30:45;;;;;;;;;;;;;;;25.64;37.33;99541.28;1746254;82;21247;-74